Time;durP1;ratioP1;P1;durP2;ratioP2;P2;SDS_P1;SDS_P2;PMS_P1;PMS_P2;Temp;Humidity;BMP_temperature;BMP_pressure;BME280_temperature;BME280_humidity;BME280_pressure;Samples;Min_cycle;Max_cycle;Signal;HPM_P1;HPM_P2
2023/11/11 00:00:12;;;;;;;1.85;1.20;;;;;;;;;;4913549;29;20091;-88
2023/11/11 00:02:57;;;;;;;3.25;1.48;;;;;;;;;;4913614;29;20048;-88
2023/11/11 00:05:43;;;;;;;4.75;1.30;;;;;;;;;;4909021;29;20518;-90
2023/11/11 00:08:34;;;;;;;3.03;1.25;;;;;;;;;;4908435;29;20282;-89
2023/11/11 00:11:22;;;;;;;3.33;1.20;;;;;;;;;;4914062;29;20126;-90
2023/11/11 00:14:10;;;;;;;2.13;1.08;;;;;;;;;;4910221;29;20032;-90
2023/11/11 00:16:56;;;;;;;2.28;0.93;;;;;;;;;;4915919;29;20036;-90
2023/11/11 00:19:42;;;;;;;2.45;1.10;;;;;;;;;;4924989;29;20029;-91
2023/11/11 00:22:31;;;;;;;1.42;1.05;;;;;;;;;;4899877;29;20492;-89
2023/11/11 00:25:16;;;;;;;2.33;1.00;;;;;;;;;;4916821;29;20032;-90
2023/11/11 00:28:02;;;;;;;3.70;0.88;;;;;;;;;;4916169;29;20133;-90
2023/11/11 00:30:47;;;;;;;2.53;1.20;;;;;;;;;;4929065;29;20104;-91
2023/11/11 00:33:38;;;;;;;2.50;0.80;;;;;;;;;;4910499;29;20036;-90
2023/11/11 00:36:24;;;;;;;1.70;0.65;;;;;;;;;;4909284;29;20036;-89
2023/11/11 00:39:12;;;;;;;1.77;0.90;;;;;;;;;;4920893;29;20032;-89
2023/11/11 00:41:57;;;;;;;7.00;1.02;;;;;;;;;;4927252;29;20048;-89
2023/11/11 00:44:44;;;;;;;1.83;0.90;;;;;;;;;;4924973;29;20460;-89
2023/11/11 00:47:29;;;;;;;3.17;0.90;;;;;;;;;;4916880;29;20483;-90
2023/11/11 00:50:16;;;;;;;2.25;0.88;;;;;;;;;;4912888;29;20127;-89
2023/11/11 00:53:02;;;;;;;3.95;0.88;;;;;;;;;;4908268;29;20040;-90
2023/11/11 00:55:47;;;;;;;1.50;0.85;;;;;;;;;;4910147;29;20067;-89
2023/11/11 00:58:33;;;;;;;0.82;0.70;;;;;;;;;;4905375;29;20024;-89
2023/11/11 01:01:19;;;;;;;2.30;1.20;;;;;;;;;;4906695;29;20103;-89
2023/11/11 01:04:04;;;;;;;0.73;0.73;;;;;;;;;;4907185;29;20028;-89
2023/11/11 01:06:50;;;;;;;1.95;0.77;;;;;;;;;;4909984;29;20028;-90
2023/11/11 01:09:39;;;;;;;3.28;0.75;;;;;;;;;;4913912;29;20738;-88
2023/11/11 01:12:24;;;;;;;2.75;0.70;;;;;;;;;;4900655;29;20032;-91
2023/11/11 01:15:30;;;;;;;4.00;0.77;;;;;;;;;;4925646;29;20044;-92
2023/11/11 01:18:15;;;;;;;0.70;0.60;;;;;;;;;;4935584;29;20028;-90
2023/11/11 01:21:03;;;;;;;2.05;0.60;;;;;;;;;;4927435;29;20048;-90
2023/11/11 01:23:49;;;;;;;0.60;0.60;;;;;;;;;;4910009;29;20048;-88
2023/11/11 01:26:36;;;;;;;0.80;0.80;;;;;;;;;;4918312;29;20593;-88
2023/11/11 01:29:22;;;;;;;0.73;0.60;;;;;;;;;;4919948;29;20020;-89
2023/11/11 01:32:08;;;;;;;2.90;0.73;;;;;;;;;;4927423;29;20091;-87
2023/11/11 01:34:53;;;;;;;0.50;0.50;;;;;;;;;;4913696;29;20047;-88
2023/11/11 01:37:39;;;;;;;2.85;0.70;;;;;;;;;;4915228;29;20028;-88
2023/11/11 01:40:24;;;;;;;0.68;0.63;;;;;;;;;;4909473;29;20048;-88
2023/11/11 01:43:11;;;;;;;1.38;0.60;;;;;;;;;;4921414;29;20095;-90
2023/11/11 01:45:59;;;;;;;0.95;0.68;;;;;;;;;;4911489;29;20146;-90
2023/11/11 01:48:44;;;;;;;1.40;0.68;;;;;;;;;;4907319;29;20034;-89
2023/11/11 01:51:30;;;;;;;0.88;0.70;;;;;;;;;;4944874;29;20056;-89
2023/11/11 01:54:16;;;;;;;0.50;0.50;;;;;;;;;;4917854;29;20051;-87
2023/11/11 01:57:03;;;;;;;2.30;0.60;;;;;;;;;;4912014;29;20063;-88
2023/11/11 01:59:48;;;;;;;0.73;0.60;;;;;;;;;;4912039;29;20048;-89
2023/11/11 02:02:34;;;;;;;0.77;0.60;;;;;;;;;;4929828;29;20063;-88
2023/11/11 02:05:22;;;;;;;3.10;0.82;;;;;;;;;;4910942;29;20060;-88
2023/11/11 02:08:08;;;;;;;0.50;0.50;;;;;;;;;;4911278;29;20083;-89
2023/11/11 02:10:54;;;;;;;0.82;0.60;;;;;;;;;;4920537;29;20058;-89
2023/11/11 02:13:40;;;;;;;1.50;0.65;;;;;;;;;;4921846;29;20039;-89
2023/11/11 02:16:26;;;;;;;2.28;0.55;;;;;;;;;;4900038;29;20035;-89
2023/11/11 02:19:11;;;;;;;0.90;0.60;;;;;;;;;;4916898;29;20042;-89
2023/11/11 02:21:56;;;;;;;0.75;0.65;;;;;;;;;;4909418;29;20028;-86
2023/11/11 02:24:43;;;;;;;0.93;0.63;;;;;;;;;;4910573;29;20218;-85
2023/11/11 02:27:31;;;;;;;1.20;0.80;;;;;;;;;;4906414;29;20114;-84
2023/11/11 02:30:16;;;;;;;0.85;0.60;;;;;;;;;;4910531;29;20115;-85
2023/11/11 02:33:02;;;;;;;0.50;0.50;;;;;;;;;;4912166;29;20028;-86
2023/11/11 02:35:49;;;;;;;0.50;0.50;;;;;;;;;;4909036;29;20691;-84
2023/11/11 02:38:35;;;;;;;1.80;0.90;;;;;;;;;;4907634;29;20149;-84
2023/11/11 02:41:20;;;;;;;1.17;0.60;;;;;;;;;;4923423;29;20031;-85
2023/11/11 02:44:06;;;;;;;0.50;0.50;;;;;;;;;;4924257;29;20059;-85
2023/11/11 02:46:51;;;;;;;0.90;0.70;;;;;;;;;;4908623;29;20111;-85
2023/11/11 02:49:37;;;;;;;0.68;0.68;;;;;;;;;;4909141;29;20047;-85
2023/11/11 02:52:26;;;;;;;0.75;0.50;;;;;;;;;;4915748;29;20035;-85
2023/11/11 02:55:11;;;;;;;0.50;0.50;;;;;;;;;;4913842;29;20036;-85
2023/11/11 02:57:57;;;;;;;1.70;0.50;;;;;;;;;;4911336;29;20056;-86
2023/11/11 03:00:43;;;;;;;0.73;0.50;;;;;;;;;;4915611;29;20038;-86
2023/11/11 03:03:29;;;;;;;0.55;0.50;;;;;;;;;;4928553;29;20119;-85
2023/11/11 03:06:15;;;;;;;3.20;0.88;;;;;;;;;;4917970;29;20040;-86
2023/11/11 03:09:03;;;;;;;0.77;0.70;;;;;;;;;;4924050;29;20020;-84
2023/11/11 03:11:50;;;;;;;1.15;0.50;;;;;;;;;;4919664;29;20108;-84
2023/11/11 03:14:35;;;;;;;0.75;0.60;;;;;;;;;;4916470;29;20530;-86
2023/11/11 03:17:21;;;;;;;0.50;0.50;;;;;;;;;;4916913;29;20150;-85
2023/11/11 03:20:09;;;;;;;2.75;0.63;;;;;;;;;;4898799;29;20085;-85
2023/11/11 03:22:55;;;;;;;0.60;0.60;;;;;;;;;;4920403;29;20032;-87
2023/11/11 03:25:46;;;;;;;0.80;0.63;;;;;;;;;;4903234;29;20395;-87
2023/11/11 03:28:31;;;;;;;1.13;0.88;;;;;;;;;;4911501;29;20044;-88
2023/11/11 03:31:19;;;;;;;0.85;0.82;;;;;;;;;;4918601;29;20044;-87
2023/11/11 03:34:04;;;;;;;8.40;0.90;;;;;;;;;;4911119;29;20039;-88
2023/11/11 03:36:50;;;;;;;0.60;0.60;;;;;;;;;;4918557;29;20054;-87
2023/11/11 03:39:35;;;;;;;0.70;0.70;;;;;;;;;;4909513;29;20054;-85
2023/11/11 03:42:21;;;;;;;1.10;0.70;;;;;;;;;;4918629;29;20059;-85
2023/11/11 03:45:09;;;;;;;3.08;1.00;;;;;;;;;;4925663;29;20364;-86
2023/11/11 03:47:54;;;;;;;0.70;0.70;;;;;;;;;;4918210;29;20032;-86
2023/11/11 03:54:18;;;;;;;1.98;1.20;;;;;;;;;;4917730;29;20024;-86
2023/11/11 03:57:03;;;;;;;0.60;0.60;;;;;;;;;;4907584;29;20447;-86
2023/11/11 03:59:49;;;;;;;0.50;0.50;;;;;;;;;;4932754;29;20565;-86
2023/11/11 04:02:35;;;;;;;0.93;0.77;;;;;;;;;;4914148;29;20032;-86
2023/11/11 04:05:20;;;;;;;0.85;0.70;;;;;;;;;;4910961;29;20127;-86
2023/11/11 04:08:06;;;;;;;2.38;1.13;;;;;;;;;;4908957;29;20033;-86
2023/11/11 04:14:14;;;;;;;2.05;0.80;;;;;;;;;;4908211;29;20039;-86
2023/11/11 04:16:59;;;;;;;1.00;0.70;;;;;;;;;;4911441;29;20040;-87
2023/11/11 04:19:46;;;;;;;3.17;1.10;;;;;;;;;;4908475;29;20032;-88
2023/11/11 04:22:31;;;;;;;2.03;0.75;;;;;;;;;;4904351;29;20407;-87
2023/11/11 04:25:16;;;;;;;2.25;0.80;;;;;;;;;;4914408;29;20451;-87
2023/11/11 04:28:01;;;;;;;0.95;0.65;;;;;;;;;;4916133;29;20084;-87
2023/11/11 04:30:47;;;;;;;0.95;0.60;;;;;;;;;;4914049;29;20031;-87
2023/11/11 04:33:32;;;;;;;1.15;0.60;;;;;;;;;;4913738;29;20034;-86
2023/11/11 04:36:17;;;;;;;1.48;0.77;;;;;;;;;;4914013;29;20020;-86
2023/11/11 04:39:03;;;;;;;0.95;0.80;;;;;;;;;;4914890;29;20048;-87
2023/11/11 04:41:48;;;;;;;3.10;0.77;;;;;;;;;;4914455;29;20428;-86
2023/11/11 04:44:33;;;;;;;0.90;0.70;;;;;;;;;;4927646;29;20123;-86
2023/11/11 04:47:21;;;;;;;1.40;0.90;;;;;;;;;;4892192;29;20028;-85
2023/11/11 04:50:08;;;;;;;0.98;0.88;;;;;;;;;;4911961;29;20080;-85
2023/11/11 04:56:13;;;;;;;1.05;0.80;;;;;;;;;;4911124;29;20486;-85
2023/11/11 04:58:59;;;;;;;0.82;0.73;;;;;;;;;;4912710;29;20332;-86
2023/11/11 05:01:44;;;;;;;3.22;1.00;;;;;;;;;;4901129;29;20067;-86
2023/11/11 05:04:29;;;;;;;0.93;0.82;;;;;;;;;;4902278;29;20024;-86
2023/11/11 05:07:14;;;;;;;3.97;1.27;;;;;;;;;;4913353;29;20032;-84
2023/11/11 05:10:00;;;;;;;3.38;1.00;;;;;;;;;;4913754;29;20020;-86
2023/11/11 05:12:47;;;;;;;1.88;1.25;;;;;;;;;;4924180;29;20024;-85
2023/11/11 05:15:34;;;;;;;2.67;1.13;;;;;;;;;;4920974;29;20114;-86
2023/11/11 05:18:19;;;;;;;2.03;1.00;;;;;;;;;;4920188;29;20447;-86
2023/11/11 05:21:05;;;;;;;3.22;1.20;;;;;;;;;;4925338;29;20039;-87
2023/11/11 05:23:51;;;;;;;3.05;1.30;;;;;;;;;;4920082;29;20036;-87
2023/11/11 05:26:39;;;;;;;2.35;1.20;;;;;;;;;;4902696;29;20119;-87
2023/11/11 05:29:25;;;;;;;1.13;0.90;;;;;;;;;;4935227;29;20059;-87
2023/11/11 05:32:10;;;;;;;1.40;0.77;;;;;;;;;;4906047;29;20056;-87
2023/11/11 05:34:57;;;;;;;2.28;0.93;;;;;;;;;;4935598;29;20165;-87
2023/11/11 05:37:43;;;;;;;1.90;1.10;;;;;;;;;;4933392;28;20075;-86
2023/11/11 05:40:29;;;;;;;2.58;1.25;;;;;;;;;;4935728;29;20020;-87
2023/11/11 05:43:15;;;;;;;2.00;0.88;;;;;;;;;;4923753;29;20036;-86
2023/11/11 05:46:00;;;;;;;1.38;0.98;;;;;;;;;;4931063;28;20080;-88
2023/11/11 05:48:45;;;;;;;3.33;1.42;;;;;;;;;;4920888;29;20538;-88
2023/11/11 05:51:31;;;;;;;4.72;1.30;;;;;;;;;;4920833;29;20048;-87
2023/11/11 05:54:16;;;;;;;3.05;1.40;;;;;;;;;;4901678;29;20070;-88
2023/11/11 05:57:01;;;;;;;3.25;0.98;;;;;;;;;;4913315;29;20510;-88
2023/11/11 05:59:49;;;;;;;1.77;0.98;;;;;;;;;;4881795;29;20044;-89
2023/11/11 06:02:35;;;;;;;2.55;1.30;;;;;;;;;;4917807;29;20039;-90
2023/11/11 06:05:21;;;;;;;1.67;1.00;;;;;;;;;;4889046;29;20036;-88
2023/11/11 06:08:09;;;;;;;2.85;1.00;;;;;;;;;;4913675;29;20084;-89
2023/11/11 06:10:54;;;;;;;3.50;1.40;;;;;;;;;;4912832;29;20036;-90
2023/11/11 06:13:40;;;;;;;1.42;1.20;;;;;;;;;;4909474;29;20047;-89
2023/11/11 06:16:25;;;;;;;1.42;1.20;;;;;;;;;;4913066;29;20395;-89
2023/11/11 06:19:10;;;;;;;3.70;1.38;;;;;;;;;;4910470;29;20032;-89
2023/11/11 06:21:55;;;;;;;2.80;1.52;;;;;;;;;;4899942;29;20032;-89
2023/11/11 06:24:41;;;;;;;6.00;1.30;;;;;;;;;;4926318;29;20028;-89
2023/11/11 06:27:26;;;;;;;3.80;1.50;;;;;;;;;;4909032;29;20040;-90
2023/11/11 06:30:12;;;;;;;5.15;1.70;;;;;;;;;;4912911;29;20028;-87
2023/11/11 06:32:59;;;;;;;2.90;1.15;;;;;;;;;;4915425;29;20510;-84
2023/11/11 06:35:47;;;;;;;1.83;1.10;;;;;;;;;;4908133;29;20483;-85
2023/11/11 06:38:32;;;;;;;1.00;1.00;;;;;;;;;;4896739;29;20427;-85
2023/11/11 06:41:19;;;;;;;2.15;1.15;;;;;;;;;;4921394;29;20028;-85
2023/11/11 06:44:05;;;;;;;2.05;1.08;;;;;;;;;;4927963;29;20035;-87
2023/11/11 06:46:50;;;;;;;1.75;1.23;;;;;;;;;;4913191;29;20427;-87
2023/11/11 06:49:35;;;;;;;3.25;1.00;;;;;;;;;;4911590;29;20111;-86
2023/11/11 06:52:21;;;;;;;1.58;0.93;;;;;;;;;;4903480;29;20059;-86
2023/11/11 06:55:09;;;;;;;2.03;1.17;;;;;;;;;;4916388;29;20023;-88
2023/11/11 06:57:54;;;;;;;2.58;1.70;;;;;;;;;;4907485;29;20076;-86
2023/11/11 07:00:40;;;;;;;2.00;1.00;;;;;;;;;;4914784;29;20493;-85
2023/11/11 07:03:25;;;;;;;3.63;1.27;;;;;;;;;;4894648;29;20039;-85
2023/11/11 07:06:10;;;;;;;1.23;1.13;;;;;;;;;;4905546;29;20028;-86
2023/11/11 07:08:56;;;;;;;1.85;0.90;;;;;;;;;;4908151;29;20036;-86
2023/11/11 07:11:41;;;;;;;3.35;1.27;;;;;;;;;;4897619;29;20047;-88
2023/11/11 07:14:27;;;;;;;5.60;2.13;;;;;;;;;;4909069;29;20051;-88
2023/11/11 07:17:12;;;;;;;4.95;1.30;;;;;;;;;;4903860;29;20482;-86
2023/11/11 07:19:57;;;;;;;1.65;1.15;;;;;;;;;;4896344;29;20036;-87
2023/11/11 07:22:43;;;;;;;5.45;1.20;;;;;;;;;;4905508;29;20402;-90
2023/11/11 07:25:28;;;;;;;2.58;0.90;;;;;;;;;;4909355;29;20471;-88
2023/11/11 07:28:15;;;;;;;2.53;0.90;;;;;;;;;;4908106;29;20159;-87
2023/11/11 07:31:00;;;;;;;3.30;0.90;;;;;;;;;;4909588;29;20048;-86
2023/11/11 07:33:49;;;;;;;3.60;1.15;;;;;;;;;;4909089;29;20024;-86
2023/11/11 07:36:34;;;;;;;1.48;1.00;;;;;;;;;;4904098;29;20120;-87
2023/11/11 07:39:19;;;;;;;2.65;0.77;;;;;;;;;;4910604;29;20115;-86
2023/11/11 07:42:05;;;;;;;1.08;0.85;;;;;;;;;;4909380;29;20032;-86
2023/11/11 07:44:50;;;;;;;0.60;0.60;;;;;;;;;;4907635;29;20024;-85
2023/11/11 07:47:35;;;;;;;1.35;0.80;;;;;;;;;;4909511;29;20505;-84
2023/11/11 07:50:21;;;;;;;1.85;0.90;;;;;;;;;;4906031;29;20084;-84
2023/11/11 07:53:07;;;;;;;1.20;1.10;;;;;;;;;;4908031;29;20046;-85
2023/11/11 07:55:52;;;;;;;1.15;1.05;;;;;;;;;;4910643;29;20024;-87
2023/11/11 07:58:38;;;;;;;1.27;0.98;;;;;;;;;;4911386;29;20537;-87
2023/11/11 08:01:24;;;;;;;2.40;1.05;;;;;;;;;;4907529;29;20491;-85
2023/11/11 08:04:10;;;;;;;1.85;0.90;;;;;;;;;;4909665;29;20032;-84
2023/11/11 08:06:56;;;;;;;2.55;1.30;;;;;;;;;;4911744;29;20107;-88
2023/11/11 08:09:41;;;;;;;2.22;1.10;;;;;;;;;;4908147;29;20463;-87
2023/11/11 08:12:27;;;;;;;1.48;1.00;;;;;;;;;;4910666;29;20067;-86
2023/11/11 08:15:13;;;;;;;3.25;1.23;;;;;;;;;;4906835;29;20472;-88
2023/11/11 08:17:58;;;;;;;4.32;1.98;;;;;;;;;;4909441;29;20115;-86
2023/11/11 08:20:44;;;;;;;1.38;1.00;;;;;;;;;;4904955;29;20478;-84
2023/11/11 08:23:29;;;;;;;3.63;1.23;;;;;;;;;;4909385;29;20399;-84
2023/11/11 08:26:14;;;;;;;2.17;1.30;;;;;;;;;;4902701;29;20110;-82
2023/11/11 08:28:59;;;;;;;4.22;2.08;;;;;;;;;;4898491;29;20020;-82
2023/11/11 08:31:45;;;;;;;2.80;1.08;;;;;;;;;;4926803;29;20008;-81
2023/11/11 08:34:31;;;;;;;3.75;1.30;;;;;;;;;;4930840;29;20031;-81
2023/11/11 08:37:16;;;;;;;3.45;2.10;;;;;;;;;;4920864;29;20115;-82
2023/11/11 08:40:05;;;;;;;3.42;1.35;;;;;;;;;;4912539;29;20028;-81
2023/11/11 08:42:51;;;;;;;2.13;1.40;;;;;;;;;;4911443;29;20038;-81
2023/11/11 08:45:36;;;;;;;2.08;1.55;;;;;;;;;;4898688;29;20040;-82
2023/11/11 08:48:22;;;;;;;1.92;1.20;;;;;;;;;;4898858;29;20390;-80
2023/11/11 08:51:08;;;;;;;1.50;1.05;;;;;;;;;;4908079;29;20075;-86
2023/11/11 08:53:53;;;;;;;4.20;1.55;;;;;;;;;;4910369;29;20028;-85
2023/11/11 08:56:38;;;;;;;3.20;1.23;;;;;;;;;;4905883;29;20043;-85
2023/11/11 08:59:23;;;;;;;4.53;1.48;;;;;;;;;;4889775;29;20530;-84
2023/11/11 09:02:09;;;;;;;1.40;1.30;;;;;;;;;;4897802;29;20558;-87
2023/11/11 09:04:55;;;;;;;4.18;1.25;;;;;;;;;;4912537;29;20046;-86
2023/11/11 09:07:40;;;;;;;5.53;1.38;;;;;;;;;;4901484;29;20035;-87
2023/11/11 09:10:27;;;;;;;4.25;1.58;;;;;;;;;;4892244;29;20032;-89
2023/11/11 09:13:15;;;;;;;3.70;1.55;;;;;;;;;;4910314;29;20036;-89
2023/11/11 09:16:00;;;;;;;3.95;1.60;;;;;;;;;;4911835;29;20031;-88
2023/11/11 09:18:47;;;;;;;2.38;1.48;;;;;;;;;;4911249;29;20024;-87
2023/11/11 09:21:32;;;;;;;3.05;1.63;;;;;;;;;;4903339;29;20541;-89
2023/11/11 09:24:17;;;;;;;2.05;1.00;;;;;;;;;;4905613;29;20115;-89
2023/11/11 09:27:02;;;;;;;3.10;1.50;;;;;;;;;;4896198;29;20038;-90
2023/11/11 09:29:48;;;;;;;1.50;1.10;;;;;;;;;;4895110;29;20036;-91
2023/11/11 09:32:33;;;;;;;1.98;1.40;;;;;;;;;;4908919;29;20032;-86
2023/11/11 09:35:19;;;;;;;3.13;1.40;;;;;;;;;;4908522;29;20079;-84
2023/11/11 09:38:06;;;;;;;2.50;1.27;;;;;;;;;;4905230;29;20032;-84
2023/11/11 09:40:52;;;;;;;3.53;1.60;;;;;;;;;;4906486;29;20099;-81
2023/11/11 09:43:37;;;;;;;2.80;1.48;;;;;;;;;;4909906;29;20073;-80
2023/11/11 09:46:25;;;;;;;2.70;1.63;;;;;;;;;;4915065;29;20271;-81
2023/11/11 09:49:12;;;;;;;2.70;1.35;;;;;;;;;;4896079;29;20091;-79
2023/11/11 09:51:59;;;;;;;1.40;1.13;;;;;;;;;;4902760;29;20040;-80
2023/11/11 09:54:48;;;;;;;3.42;1.60;;;;;;;;;;4909219;29;20028;-79
2023/11/11 09:57:33;;;;;;;3.28;1.08;;;;;;;;;;4902870;29;20042;-79
2023/11/11 10:00:19;;;;;;;0.88;0.88;;;;;;;;;;4900225;29;20028;-79
2023/11/11 10:03:04;;;;;;;4.57;1.20;;;;;;;;;;4908026;29;20040;-88
2023/11/11 10:05:49;;;;;;;1.08;0.90;;;;;;;;;;4909111;29;20028;-88
2023/11/11 10:08:35;;;;;;;2.83;0.98;;;;;;;;;;4897231;29;20041;-84
2023/11/11 10:11:20;;;;;;;2.08;1.25;;;;;;;;;;4909960;29;20047;-82
2023/11/11 10:14:08;;;;;;;1.83;1.10;;;;;;;;;;4908290;29;20110;-81
2023/11/11 10:16:58;;;;;;;1.63;0.90;;;;;;;;;;4902605;29;20036;-79
2023/11/11 10:19:44;;;;;;;2.60;1.30;;;;;;;;;;4925148;29;20118;-83
2023/11/11 10:22:29;;;;;;;1.98;1.13;;;;;;;;;;4904878;29;20032;-80
2023/11/11 10:25:17;;;;;;;1.67;1.25;;;;;;;;;;4907421;29;20028;-88
2023/11/11 10:28:02;;;;;;;5.78;1.40;;;;;;;;;;4912123;29;20115;-86
2023/11/11 10:30:48;;;;;;;2.58;1.30;;;;;;;;;;4907289;29;20025;-84
2023/11/11 10:33:37;;;;;;;2.95;1.27;;;;;;;;;;4904576;29;20036;-86
2023/11/11 10:36:22;;;;;;;3.05;1.33;;;;;;;;;;4906742;29;20391;-84
2023/11/11 10:39:09;;;;;;;4.80;1.30;;;;;;;;;;4889940;29;20039;-86
2023/11/11 10:41:57;;;;;;;1.38;1.00;;;;;;;;;;4902592;29;20032;-85
2023/11/11 10:44:43;;;;;;;1.73;1.00;;;;;;;;;;4908644;29;20040;-85
2023/11/11 10:47:29;;;;;;;3.35;1.10;;;;;;;;;;4907195;29;20043;-84
2023/11/11 10:50:14;;;;;;;2.20;1.20;;;;;;;;;;4908440;29;20103;-85
2023/11/11 10:53:00;;;;;;;1.58;0.98;;;;;;;;;;4911141;29;20087;-84
2023/11/11 10:55:49;;;;;;;2.63;1.15;;;;;;;;;;4907126;29;20156;-84
2023/11/11 10:58:38;;;;;;;3.00;0.98;;;;;;;;;;4908377;29;20040;-84
2023/11/11 11:01:24;;;;;;;3.30;1.15;;;;;;;;;;4907971;29;20047;-85
2023/11/11 11:04:11;;;;;;;2.28;1.00;;;;;;;;;;4890196;29;20695;-85
2023/11/11 11:07:00;;;;;;;2.25;1.40;;;;;;;;;;4904085;29;20082;-84
2023/11/11 11:10:01;;;;;;;3.05;1.30;;;;;;;;;;4907988;29;20086;-84
2023/11/11 11:12:52;;;;;;;2.28;1.35;;;;;;;;;;4910692;29;20044;-84
2023/11/11 11:15:44;;;;;;;1.90;0.85;;;;;;;;;;4919424;29;20047;-84
2023/11/11 11:18:29;;;;;;;2.05;1.08;;;;;;;;;;4916427;29;20543;-85
2023/11/11 11:21:16;;;;;;;3.78;1.20;;;;;;;;;;4923693;29;20063;-84
2023/11/11 11:24:08;;;;;;;1.60;1.30;;;;;;;;;;4909544;29;20031;-84
2023/11/11 11:26:54;;;;;;;4.05;1.42;;;;;;;;;;4911485;29;20697;-84
2023/11/11 11:29:40;;;;;;;2.20;1.17;;;;;;;;;;4909884;29;20048;-85
2023/11/11 11:32:33;;;;;;;1.75;0.90;;;;;;;;;;4910954;29;20044;-86
2023/11/11 11:35:28;;;;;;;3.58;1.63;;;;;;;;;;4906250;29;20029;-84
2023/11/11 11:38:24;;;;;;;4.60;1.83;;;;;;;;;;4902970;29;20035;-84
2023/11/11 11:41:20;;;;;;;2.85;1.40;;;;;;;;;;4908654;29;20072;-85
2023/11/11 11:44:06;;;;;;;2.67;1.10;;;;;;;;;;4912275;29;20047;-85
2023/11/11 11:46:51;;;;;;;2.03;1.20;;;;;;;;;;4912261;29;20028;-84
2023/11/11 11:49:37;;;;;;;3.30;1.35;;;;;;;;;;4892769;29;20100;-83
2023/11/11 11:52:22;;;;;;;1.30;0.90;;;;;;;;;;4911532;29;20020;-84
2023/11/11 11:55:08;;;;;;;1.38;1.27;;;;;;;;;;4913120;29;20391;-85
2023/11/11 11:57:56;;;;;;;3.03;1.15;;;;;;;;;;4911045;29;20036;-84
2023/11/11 12:00:41;;;;;;;4.53;1.05;;;;;;;;;;4911322;29;20032;-84
2023/11/11 12:03:27;;;;;;;2.35;1.52;;;;;;;;;;4911334;29;20028;-85
2023/11/11 12:06:12;;;;;;;3.50;1.33;;;;;;;;;;4912202;29;20048;-84
2023/11/11 12:08:59;;;;;;;3.90;1.35;;;;;;;;;;4909988;29;20118;-84
2023/11/11 12:11:45;;;;;;;1.85;1.17;;;;;;;;;;4911556;29;20459;-84
2023/11/11 12:14:30;;;;;;;1.15;0.90;;;;;;;;;;4910430;29;20035;-83
2023/11/11 12:17:16;;;;;;;2.65;1.10;;;;;;;;;;4919780;29;20028;-84
2023/11/11 12:20:04;;;;;;;3.17;1.42;;;;;;;;;;4911310;29;20071;-85
2023/11/11 12:22:49;;;;;;;2.13;1.23;;;;;;;;;;4911049;29;20480;-84
2023/11/11 12:25:39;;;;;;;2.10;1.25;;;;;;;;;;4908896;29;20364;-82
2023/11/11 12:28:26;;;;;;;6.10;1.50;;;;;;;;;;4910592;29;20119;-84
2023/11/11 12:31:12;;;;;;;1.50;1.02;;;;;;;;;;4906222;29;20059;-83
2023/11/11 12:33:57;;;;;;;3.58;1.27;;;;;;;;;;4906550;29;20040;-85
2023/11/11 12:36:43;;;;;;;4.07;1.40;;;;;;;;;;4903416;29;20054;-84
2023/11/11 12:39:28;;;;;;;2.67;1.13;;;;;;;;;;4893981;29;20043;-82
2023/11/11 12:42:15;;;;;;;3.47;1.52;;;;;;;;;;4911126;29;20142;-83
2023/11/11 12:45:00;;;;;;;2.75;1.52;;;;;;;;;;4899525;29;20024;-82
2023/11/11 12:47:50;;;;;;;2.45;1.27;;;;;;;;;;4895984;29;20024;-83
2023/11/11 12:50:35;;;;;;;;;;;;;;;;;;4911091;29;20083;-82
2023/11/11 12:53:20;;;;;;;6.10;1.38;;;;;;;;;;4909603;29;19918;-84
2023/11/11 12:56:09;;;;;;;3.75;1.95;;;;;;;;;;4911236;29;20231;-84
2023/11/11 12:59:05;;;;;;;2.35;1.33;;;;;;;;;;4901047;29;20032;-85
2023/11/11 13:01:50;;;;;;;3.10;1.45;;;;;;;;;;4891918;29;20028;-84
2023/11/11 13:04:36;;;;;;;2.45;1.20;;;;;;;;;;4909962;29;20433;-83
2023/11/11 13:07:27;;;;;;;2.38;1.35;;;;;;;;;;4905996;29;20041;-84
2023/11/11 13:10:14;;;;;;;4.43;1.17;;;;;;;;;;4909267;29;20083;-83
2023/11/11 13:13:00;;;;;;;2.35;1.15;;;;;;;;;;4910210;29;20036;-83
2023/11/11 13:15:47;;;;;;;1.92;1.50;;;;;;;;;;4900937;29;20024;-83
2023/11/11 13:18:33;;;;;;;1.52;1.35;;;;;;;;;;4908507;29;20054;-83
2023/11/11 13:21:20;;;;;;;3.53;1.27;;;;;;;;;;4907603;29;20104;-83
2023/11/11 13:24:12;;;;;;;1.85;1.20;;;;;;;;;;4923643;29;20076;-83
2023/11/11 13:26:58;;;;;;;2.97;1.30;;;;;;;;;;4903892;29;20034;-83
2023/11/11 13:29:44;;;;;;;4.43;1.42;;;;;;;;;;4905378;29;20127;-83
2023/11/11 13:32:29;;;;;;;3.58;1.45;;;;;;;;;;4905975;29;20534;-83
2023/11/11 13:35:16;;;;;;;3.30;1.50;;;;;;;;;;4907023;29;20024;-82
2023/11/11 13:38:06;;;;;;;2.28;1.17;;;;;;;;;;4908472;29;20042;-83
2023/11/11 13:40:52;;;;;;;3.03;1.50;;;;;;;;;;4907394;29;20436;-81
2023/11/11 13:43:37;;;;;;;2.78;1.55;;;;;;;;;;4898921;29;20055;-83
2023/11/11 13:46:25;;;;;;;1.75;1.38;;;;;;;;;;4899766;29;20054;-83
2023/11/11 13:49:11;;;;;;;2.95;1.20;;;;;;;;;;4909795;29;20028;-82
2023/11/11 13:51:56;;;;;;;3.08;1.20;;;;;;;;;;4902930;29;20043;-81
2023/11/11 13:54:42;;;;;;;3.90;1.25;;;;;;;;;;4908458;29;20704;-82
2023/11/11 13:57:27;;;;;;;2.20;1.20;;;;;;;;;;4905206;29;20039;-83
2023/11/11 14:00:26;;;;;;;2.58;1.13;;;;;;;;;;4907139;29;20046;-82
2023/11/11 14:03:12;;;;;;;;;;;;;;;;;;4906937;29;20407;-82
2023/11/11 14:05:58;;;;;;;4.45;1.58;;;;;;;;;;4903470;29;19911;-82
2023/11/11 14:08:43;;;;;;;3.08;1.52;;;;;;;;;;4909474;29;20040;-84
2023/11/11 14:11:28;;;;;;;6.10;1.48;;;;;;;;;;4904711;29;20462;-84
2023/11/11 14:14:15;;;;;;;2.72;1.02;;;;;;;;;;4908751;29;20067;-85
2023/11/11 14:17:01;;;;;;;2.15;1.25;;;;;;;;;;4908953;29;20063;-84
2023/11/11 14:19:47;;;;;;;4.72;1.60;;;;;;;;;;4913272;29;20067;-83
2023/11/11 14:22:32;;;;;;;4.05;1.30;;;;;;;;;;4909110;29;20399;-85
2023/11/11 14:25:18;;;;;;;5.45;1.70;;;;;;;;;;4904523;29;20504;-85
2023/11/11 14:28:19;;;;;;;4.35;1.20;;;;;;;;;;4911558;29;20040;-84
2023/11/11 14:31:05;;;;;;;2.38;1.17;;;;;;;;;;4904375;29;20100;-85
2023/11/11 14:33:50;;;;;;;2.58;1.70;;;;;;;;;;4907635;29;20020;-85
2023/11/11 14:36:38;;;;;;;2.03;1.42;;;;;;;;;;4910644;29;20020;-84
2023/11/11 14:39:25;;;;;;;2.60;1.20;;;;;;;;;;4908773;29;20028;-85
2023/11/11 14:42:17;;;;;;;3.72;1.38;;;;;;;;;;4909131;29;20556;-84
2023/11/11 14:45:03;;;;;;;4.57;1.30;;;;;;;;;;4907117;29;20032;-84
2023/11/11 14:47:49;;;;;;;2.05;1.20;;;;;;;;;;4907060;29;20031;-84
2023/11/11 14:50:34;;;;;;;6.10;1.42;;;;;;;;;;4906473;29;20043;-84
2023/11/11 14:53:19;;;;;;;3.30;1.10;;;;;;;;;;4905061;29;20523;-84
2023/11/11 14:56:05;;;;;;;2.83;1.05;;;;;;;;;;4910737;29;20103;-85
2023/11/11 14:58:51;;;;;;;2.33;1.30;;;;;;;;;;4912468;29;20872;-83
2023/11/11 15:01:36;;;;;;;3.35;1.55;;;;;;;;;;4913719;29;20091;-85
2023/11/11 15:04:21;;;;;;;2.90;1.00;;;;;;;;;;4913946;29;20039;-84
2023/11/11 15:07:07;;;;;;;2.58;1.20;;;;;;;;;;4910194;29;20040;-84
2023/11/11 15:10:17;;;;;;;2.88;1.20;;;;;;;;;;4910741;29;20081;-84
2023/11/11 15:13:03;;;;;;;1.35;1.10;;;;;;;;;;4919511;29;20050;-84
2023/11/11 15:15:48;;;;;;;1.35;1.10;;;;;;;;;;4921462;29;20046;-84
2023/11/11 15:18:34;;;;;;;2.47;1.58;;;;;;;;;;4931529;29;20040;-84
2023/11/11 15:21:22;;;;;;;3.88;1.50;;;;;;;;;;4914649;29;20499;-84
2023/11/11 15:24:09;;;;;;;2.72;1.30;;;;;;;;;;4913554;29;20107;-84
2023/11/11 15:26:55;;;;;;;3.10;1.42;;;;;;;;;;4897463;29;20040;-84
2023/11/11 15:29:40;;;;;;;3.15;1.10;;;;;;;;;;4913076;29;20088;-83
2023/11/11 15:32:25;;;;;;;2.05;1.02;;;;;;;;;;4930979;29;20059;-84
2023/11/11 15:35:11;;;;;;;1.75;1.10;;;;;;;;;;4905520;29;20028;-84
2023/11/11 15:37:59;;;;;;;2.13;0.98;;;;;;;;;;4911095;29;20127;-84
2023/11/11 15:40:44;;;;;;;5.15;1.83;;;;;;;;;;4912964;29;20395;-84
2023/11/11 15:43:29;;;;;;;2.78;1.42;;;;;;;;;;4893655;29;20072;-85
2023/11/11 15:46:18;;;;;;;5.07;1.52;;;;;;;;;;4914519;29;20028;-84
2023/11/11 15:49:03;;;;;;;2.65;1.10;;;;;;;;;;4914519;29;20201;-85
2023/11/11 15:51:49;;;;;;;2.97;1.20;;;;;;;;;;4914680;29;20048;-85
2023/11/11 15:54:34;;;;;;;4.65;1.38;;;;;;;;;;4915644;29;20032;-84
2023/11/11 15:57:20;;;;;;;3.05;1.17;;;;;;;;;;4930739;29;20015;-84
2023/11/11 16:00:10;;;;;;;6.53;1.77;;;;;;;;;;4925976;29;20024;-85
2023/11/11 16:02:55;;;;;;;1.80;1.20;;;;;;;;;;4912803;29;20023;-84
2023/11/11 16:05:40;;;;;;;3.28;1.45;;;;;;;;;;4913208;29;20621;-84
2023/11/11 16:08:25;;;;;;;2.80;1.27;;;;;;;;;;4913567;29;20036;-84
2023/11/11 16:11:11;;;;;;;2.92;1.52;;;;;;;;;;4912141;29;20039;-83
2023/11/11 16:14:00;;;;;;;3.33;1.45;;;;;;;;;;4911455;29;20032;-84
2023/11/11 16:16:45;;;;;;;3.03;1.77;;;;;;;;;;4911207;29;20028;-84
2023/11/11 16:19:34;;;;;;;2.88;1.67;;;;;;;;;;4911607;29;20492;-84
2023/11/11 16:22:21;;;;;;;4.80;1.85;;;;;;;;;;4910840;29;20043;-84
2023/11/11 16:25:10;;;;;;;5.95;2.10;;;;;;;;;;4903639;29;20504;-85
2023/11/11 16:27:57;;;;;;;3.60;2.00;;;;;;;;;;4908396;29;20523;-85
2023/11/11 16:30:42;;;;;;;4.72;2.17;;;;;;;;;;4906300;29;20035;-85
2023/11/11 16:33:28;;;;;;;3.75;1.90;;;;;;;;;;4901560;29;20032;-85
2023/11/11 16:36:13;;;;;;;3.85;2.00;;;;;;;;;;4910572;29;20036;-84
2023/11/11 16:38:59;;;;;;;6.43;1.88;;;;;;;;;;4911235;29;20024;-83
2023/11/11 16:41:45;;;;;;;7.43;2.55;;;;;;;;;;4912207;29;20025;-83
2023/11/11 16:44:30;;;;;;;5.07;2.63;;;;;;;;;;4897159;29;20067;-83
2023/11/11 16:47:16;;;;;;;7.10;3.15;;;;;;;;;;4907752;29;20891;-85